CheckWX is a tool to help pilots better visualize weather data.  It is not intended as a substitute for an official pre-flight weather briefing.

09:54:07 UTC

CYGK METAR
Kingston Norman Rogers Airport
Kingston, Canada
Current

7 hours ago

CYGK 210300Z 03003KT 15SM SCT120 OVC250 01/M03 A3010 RMK AC3CI5 LAST STFD OBS/NEXT 211000 UTC SLP197
Observed
Mar-21 @ 03:00 UTC
Wind
  • 030° at 3 KTS
Visibility
15 SM
Flight Rules
VFR
Cloud Levels
  • Scattered at 12,000' AGL
  • Overcast at 25,000' AGL
Temperature
C / 34°F
Dewpoint
-3°C / 27°F
Humidity
75%
Altimeter
30.1" Hg
Pressure
1019.7 hPa
Previous

8 hours ago

CYGK 210200Z 05003KT 15SM SCT140 OVC240 02/M03 A3011 RMK AC4CI4 SLP202
Observed
Mar-21 @ 02:00 UTC
Wind
  • 050° at 3 KTS
Visibility
15 SM
Flight Rules
VFR
Cloud Levels
  • Scattered at 14,000' AGL
  • Overcast at 24,000' AGL
Temperature
C / 36°F
Dewpoint
-3°C / 27°F
Humidity
70%
Altimeter
30.11" Hg
Pressure
1020.2 hPa
Previous

9 hours ago

CYGK 210100Z 03002KT 15SM SCT150 BKN250 02/M04 A3011 RMK AC3CI3 SLP203
Observed
Mar-21 @ 01:00 UTC
Wind
  • 030° at 2 KTS
Visibility
15 SM
Flight Rules
VFR
Cloud Levels
  • Scattered at 15,000' AGL
  • Broken at 25,000' AGL
Temperature
C / 36°F
Dewpoint
-4°C / 25°F
Humidity
65%
Altimeter
30.11" Hg
Pressure
1020.3 hPa